Time;durP1;ratioP1;P1;durP2;ratioP2;P2;SDS_P1;SDS_P2;PMS_P1;PMS_P2;Temp;Humidity;BMP_temperature;BMP_pressure;BME280_temperature;BME280_humidity;BME280_pressure;Samples;Min_cycle;Max_cycle;Signal;HPM_P1;HPM_P2
2022/08/08 00:00:15;;;;;;;7.87;7.25;;;;;;;19.30;100.00;99669.40;1710107;83;21751;-74
2022/08/08 00:03:10;;;;;;;8.73;8.00;;;;;;;19.28;100.00;99670.83;1710819;83;20978;-74
2022/08/08 00:06:06;;;;;;;7.53;6.92;;;;;;;19.27;100.00;99669.14;1718253;83;21041;-73
2022/08/08 00:08:59;;;;;;;9.85;7.40;;;;;;;19.23;100.00;99671.16;1702996;83;21021;-73
2022/08/08 00:11:46;;;;;;;8.78;7.72;;;;;;;19.23;100.00;99667.20;1710029;82;21553;-73
2022/08/08 00:14:31;;;;;;;10.08;7.45;;;;;;;19.22;100.00;99673.91;1713806;82;21010;-74
2022/08/08 00:17:09;;;;;;;9.30;7.03;;;;;;;19.20;100.00;99668.75;1711600;83;21509;-74
2022/08/08 00:19:47;;;;;;;8.43;7.58;;;;;;;19.20;100.00;99662.62;1711754;83;20969;-73
2022/08/08 00:22:27;;;;;;;9.38;7.72;;;;;;;19.19;100.00;99671.02;1658524;86;21079;-74
2022/08/08 00:24:58;;;;;;;9.48;8.50;;;;;;;19.18;100.00;99670.65;1654506;86;21042;-73
2022/08/08 00:27:25;;;;;;;9.98;9.15;;;;;;;19.19;100.00;99667.06;1653904;85;21124;-74
2022/08/08 00:30:07;;;;;;;8.93;8.23;;;;;;;19.20;100.00;99663.47;1652825;86;21020;-74
2022/08/08 00:32:45;;;;;;;;;;;;;;;19.20;100.00;99662.16;1658454;85;21145;-74
2022/08/08 00:35:51;;;;;;;9.25;8.00;;;;;;;19.17;100.00;99657.13;1651793;85;20179;-74
2022/08/08 00:39:10;;;;;;;10.00;8.95;;;;;;;19.18;100.00;99658.78;1652743;86;21034;-74
2022/08/08 00:41:47;;;;;;;9.03;8.23;;;;;;;19.18;100.00;99660.61;1652380;86;21340;-73
2022/08/08 00:44:58;;;;;;;8.73;7.92;;;;;;;19.16;100.00;99653.29;1653618;86;21546;-73
2022/08/08 00:47:55;;;;;;;8.90;8.10;;;;;;;19.14;100.00;99652.08;1701084;83;21104;-73
2022/08/08 00:51:10;;;;;;;9.03;8.18;;;;;;;19.10;100.00;99663.80;1705733;83;21298;-73
2022/08/08 00:54:27;;;;;;;8.98;7.95;;;;;;;19.08;100.00;99654.31;1711691;83;21108;-73
2022/08/08 00:57:37;;;;;;;7.65;7.00;;;;;;;19.04;100.00;99654.17;1715449;83;21066;-73
2022/08/08 01:00:16;;;;;;;8.25;7.42;;;;;;;19.01;100.00;99661.83;1711081;83;20974;-73
2022/08/08 01:03:10;;;;;;;7.92;7.33;;;;;;;18.97;100.00;99663.02;1689299;83;21125;-73
2022/08/08 01:06:15;;;;;;;8.03;7.08;;;;;;;18.97;100.00;99657.76;1709803;83;21013;-74
2022/08/08 01:09:04;;;;;;;8.58;7.87;;;;;;;18.99;100.00;99659.77;1712378;83;21061;-74
2022/08/08 01:12:15;;;;;;;8.03;7.15;;;;;;;18.99;100.00;99653.66;1709777;83;21131;-73
2022/08/08 01:15:27;;;;;;;7.28;6.62;;;;;;;19.00;100.00;99653.55;1713781;83;20991;-74
2022/08/08 01:18:18;;;;;;;7.33;6.62;;;;;;;18.98;100.00;99654.64;1713742;82;20994;-73
2022/08/08 01:21:24;;;;;;;7.92;6.72;;;;;;;18.97;100.00;99662.19;1710753;83;21065;-73
2022/08/08 01:24:00;;;;;;;10.15;6.55;;;;;;;18.95;100.00;99662.77;1714294;83;20966;-73
2022/08/08 01:26:38;;;;;;;7.28;6.58;;;;;;;18.91;100.00;99671.38;1716912;83;21108;-73
2022/08/08 01:29:29;;;;;;;6.90;6.22;;;;;;;18.89;100.00;99660.09;1680930;83;21103;-73
2022/08/08 01:32:23;;;;;;;6.90;6.35;;;;;;;18.89;100.00;99658.78;1716177;83;21552;-74
2022/08/08 01:35:13;;;;;;;7.12;6.40;;;;;;;18.89;100.00;99658.78;1704764;83;26589;-73
2022/08/08 01:38:23;;;;;;;7.45;6.20;;;;;;;18.88;100.00;99659.73;1712514;83;21458;-75
2022/08/08 01:41:03;;;;;;;7.90;6.62;;;;;;;18.91;100.00;99659.52;1711558;83;21143;-75
2022/08/08 01:43:43;;;;;;;6.20;5.60;;;;;;;18.90;100.00;99659.14;1711066;83;21006;-74
2022/08/08 01:46:55;;;;;;;6.47;5.97;;;;;;;18.90;100.00;99659.98;1713179;83;21530;-74
2022/08/08 01:49:42;;;;;;;7.75;7.05;;;;;;;18.92;100.00;99658.08;1691154;83;21025;-74
2022/08/08 01:52:44;;;;;;;6.72;6.20;;;;;;;18.93;100.00;99662.41;1717834;83;21089;-75
2022/08/08 01:55:27;;;;;;;7.28;6.67;;;;;;;18.95;100.00;99658.34;1713480;83;26139;-73
2022/08/08 01:58:18;;;;;;;;;;;;;;;18.98;100.00;99669.14;1714644;83;21018;-73
2022/08/08 02:01:04;;;;;;;7.17;6.50;;;;;;;18.97;100.00;99669.62;1712594;83;20199;-74
2022/08/08 02:03:56;;;;;;;6.50;6.00;;;;;;;18.96;100.00;99672.36;1713996;82;21058;-73
2022/08/08 02:07:02;;;;;;;6.65;6.08;;;;;;;18.95;100.00;99675.47;1713546;83;21097;-73
2022/08/08 02:09:57;;;;;;;7.30;6.15;;;;;;;18.94;100.00;99676.42;1713193;83;21153;-73
2022/08/08 02:12:31;;;;;;;6.92;5.95;;;;;;;18.90;100.00;99667.05;1712920;83;20974;-74
2022/08/08 02:15:22;;;;;;;10.80;6.28;;;;;;;18.86;100.00;99662.95;1712396;83;21037;-74
2022/08/08 02:18:15;;;;;;;6.80;6.20;;;;;;;18.86;100.00;99668.22;1713144;83;21136;-74
2022/08/08 02:24:05;;;;;;;9.08;6.30;;;;;;;18.82;100.00;99665.44;1715468;83;21632;-73
2022/08/08 02:26:39;;;;;;;5.85;5.35;;;;;;;18.81;100.00;99669.02;1707890;82;21026;-75
2022/08/08 02:29:31;;;;;;;6.40;5.30;;;;;;;18.81;100.00;99669.86;1711563;83;21034;-75
2022/08/08 02:32:18;;;;;;;8.53;5.90;;;;;;;18.79;100.00;99674.88;1712743;83;21109;-74
2022/08/08 02:35:20;;;;;;;6.72;6.17;;;;;;;18.76;100.00;99669.38;1714010;83;20999;-75
2022/08/08 02:38:12;;;;;;;6.72;6.12;;;;;;;18.75;100.00;99677.39;1714261;82;21093;-75
2022/08/08 02:41:21;;;;;;;6.22;5.62;;;;;;;18.72;100.00;99681.08;1712851;83;21536;-74
2022/08/08 02:44:09;;;;;;;5.85;5.35;;;;;;;18.71;100.00;99685.14;1686889;83;21126;-74
2022/08/08 02:47:15;;;;;;;6.53;5.87;;;;;;;18.71;100.00;99687.30;1710911;83;21477;-73
2022/08/08 02:50:24;;;;;;;9.63;6.60;;;;;;;18.70;100.00;99696.16;1712223;83;21480;-79
2022/08/08 02:53:20;;;;;;;6.75;6.22;;;;;;;18.71;100.00;99690.41;1711328;83;21139;-78
2022/08/08 02:56:26;;;;;;;7.45;6.67;;;;;;;18.69;100.00;99692.30;1711153;83;21052;-75
2022/08/08 02:59:32;;;;;;;7.22;6.28;;;;;;;18.64;100.00;99699.21;1648618;84;21105;-75
2022/08/08 03:02:41;;;;;;;7.30;6.62;;;;;;;18.63;100.00;99694.05;1627549;87;21085;-75
2022/08/08 03:05:13;;;;;;;7.25;6.15;;;;;;;18.63;100.00;99709.86;1634189;86;21089;-75
2022/08/08 03:08:10;;;;;;;6.35;5.75;;;;;;;18.65;100.00;99707.48;1648256;86;20944;-75
2022/08/08 03:11:33;;;;;;;6.58;5.97;;;;;;;18.66;100.00;99710.96;1653007;86;21022;-75
2022/08/08 03:14:32;;;;;;;7.03;6.33;;;;;;;18.63;100.00;99711.17;1683984;84;21525;-76
2022/08/08 03:17:13;;;;;;;8.00;6.12;;;;;;;18.57;100.00;99715.91;1683676;84;21010;-73
2022/08/08 03:20:04;;;;;;;5.65;5.15;;;;;;;18.56;100.00;99721.29;1686169;84;21052;-77
2022/08/08 03:22:28;;;;;;;9.70;5.30;;;;;;;18.54;100.00;99716.60;1682448;84;21268;-77
2022/08/08 03:24:55;;;;;;;5.75;5.25;;;;;;;18.54;100.00;99719.23;1686483;84;21045;-77
2022/08/08 03:27:39;;;;;;;6.15;5.28;;;;;;;18.53;100.00;99718.39;1710438;83;20965;-75
2022/08/08 03:30:11;;;;;;;6.12;5.53;;;;;;;18.51;100.00;99718.97;1717614;83;20974;-79
2022/08/08 03:35:26;;;;;;;6.83;5.90;;;;;;;18.52;100.00;99720.66;1709271;83;21104;-79
2022/08/08 03:37:53;;;;;;;6.80;5.35;;;;;;;18.53;100.00;99719.71;1712599;83;20961;-79
2022/08/08 03:40:23;;;;;;;6.20;5.17;;;;;;;18.54;100.00;99724.50;1691488;83;21005;-79
2022/08/08 03:42:50;;;;;;;6.55;5.17;;;;;;;18.53;100.00;99723.66;1714930;83;21081;-79
2022/08/08 03:45:22;;;;;;;8.20;5.22;;;;;;;18.52;100.00;99724.61;1713655;83;21065;-79
2022/08/08 03:48:07;;;;;;;5.05;4.65;;;;;;;18.54;100.00;99731.09;1708427;83;21228;-79
2022/08/08 03:50:38;;;;;;;4.47;4.08;;;;;;;18.56;100.00;99732.67;1714443;83;20982;-78
2022/08/08 03:53:10;;;;;;;5.30;4.25;;;;;;;18.58;100.00;99743.91;1688049;83;21093;-79
2022/08/08 03:55:41;;;;;;;4.22;3.60;;;;;;;18.58;100.00;99741.78;1712639;83;21050;-78
2022/08/08 03:58:09;;;;;;;4.50;4.10;;;;;;;18.55;100.00;99738.89;1713897;83;21101;-78
2022/08/08 04:00:36;;;;;;;5.60;4.72;;;;;;;18.55;100.00;99734.94;1703468;83;21523;-79
2022/08/08 04:03:07;;;;;;;4.45;4.05;;;;;;;18.55;100.00;99744.63;1713936;83;21048;-78
2022/08/08 04:05:36;;;;;;;5.25;4.05;;;;;;;18.55;100.00;99745.47;1712685;83;21517;-78
2022/08/08 04:08:06;;;;;;;4.40;4.00;;;;;;;18.58;100.00;99750.50;1713988;83;21072;-78
2022/08/08 04:10:34;;;;;;;3.67;3.37;;;;;;;18.62;100.00;99742.42;1712716;83;20979;-79
2022/08/08 04:13:04;;;;;;;4.75;3.95;;;;;;;18.65;100.00;99750.11;1714563;83;21773;-79
2022/08/08 04:15:30;;;;;;;4.53;4.12;;;;;;;18.66;100.00;99750.01;1711225;83;21838;-79
2022/08/08 04:17:57;;;;;;;4.53;3.52;;;;;;;18.67;100.00;99747.74;1713546;82;21045;-79
2022/08/08 04:20:24;;;;;;;3.98;3.58;;;;;;;18.70;100.00;99753.27;1716645;83;21054;-80
2022/08/08 04:22:51;;;;;;;6.10;3.62;;;;;;;18.72;100.00;99749.58;1713772;83;21501;-79
2022/08/08 04:25:18;;;;;;;3.90;3.35;;;;;;;18.75;100.00;99757.28;1712426;82;21439;-79
2022/08/08 04:27:45;;;;;;;3.92;3.52;;;;;;;18.78;100.00;99750.95;1711716;82;21069;-80
2022/08/08 04:30:13;;;;;;;3.92;3.55;;;;;;;18.81;100.00;99759.94;1711157;83;20997;-79
2022/08/08 04:32:39;;;;;;;4.15;3.27;;;;;;;18.83;100.00;99756.72;1713814;83;21002;-79
2022/08/08 04:35:07;;;;;;;4.67;3.00;;;;;;;18.84;100.00;99763.20;1714955;83;21618;-80
2022/08/08 04:37:36;;;;;;;3.20;3.00;;;;;;;18.83;100.00;99760.67;1714780;83;21078;-80
2022/08/08 04:40:05;;;;;;;3.45;3.02;;;;;;;18.79;100.00;99758.72;1716041;83;20959;-81
2022/08/08 04:42:35;;;;;;;5.40;4.10;;;;;;;18.76;100.00;99762.08;1715679;82;21093;-80
2022/08/08 04:45:02;;;;;;;3.10;2.80;;;;;;;18.75;100.00;99763.87;1716496;83;20982;-79
2022/08/08 04:47:29;;;;;;;3.65;2.72;;;;;;;18.75;100.00;99769.61;1712786;83;21227;-79
2022/08/08 04:49:57;;;;;;;4.30;2.95;;;;;;;18.76;100.00;99775.25;1711064;83;21102;-79
2022/08/08 04:52:23;;;;;;;7.25;2.98;;;;;;;18.77;100.00;99771.19;1716609;83;21139;-79
2022/08/08 04:54:50;;;;;;;4.90;2.90;;;;;;;18.80;100.00;99782.81;1711579;83;21084;-79
2022/08/08 04:57:16;;;;;;;3.60;2.67;;;;;;;18.83;100.00;99772.53;1712638;83;21001;-79
2022/08/08 04:59:43;;;;;;;7.37;2.80;;;;;;;18.85;100.00;99777.22;1712567;83;21073;-79
2022/08/08 05:02:10;;;;;;;5.15;3.33;;;;;;;18.87;100.00;99775.32;1717747;83;21505;-79
2022/08/08 05:04:36;;;;;;;4.40;2.52;;;;;;;18.88;100.00;99775.69;1714883;83;20998;-79
2022/08/08 05:07:04;;;;;;;3.70;2.17;;;;;;;18.87;100.00;99781.44;1714055;83;20973;-79
2022/08/08 05:09:31;;;;;;;3.55;2.37;;;;;;;18.86;100.00;99782.86;1713564;83;21080;-79
2022/08/08 05:11:58;;;;;;;2.80;2.60;;;;;;;18.83;100.00;99779.12;1710118;83;21100;-81
2022/08/08 05:14:26;;;;;;;2.92;2.67;;;;;;;18.80;100.00;99775.38;1715968;83;21930;-80
2022/08/08 05:16:55;;;;;;;4.78;2.40;;;;;;;18.78;100.00;99780.78;1712139;83;21573;-79
2022/08/08 05:19:21;;;;;;;3.27;2.20;;;;;;;18.82;100.00;99782.23;1709811;82;21600;-79
2022/08/08 05:21:48;;;;;;;2.80;2.60;;;;;;;18.86;100.00;99783.70;1708623;83;21242;-80
2022/08/08 05:24:15;;;;;;;3.08;2.40;;;;;;;18.89;100.00;99782.17;1712529;83;21061;-79
2022/08/08 05:26:45;;;;;;;2.90;2.70;;;;;;;18.92;100.00;99779.33;1707981;83;21758;-78
2022/08/08 05:29:12;;;;;;;3.90;2.70;;;;;;;18.97;100.00;99789.55;1714675;83;21085;-78
2022/08/08 05:31:39;;;;;;;2.35;2.08;;;;;;;19.01;100.00;99784.40;1705859;83;20998;-79
2022/08/08 05:34:13;;;;;;;2.50;2.30;;;;;;;19.05;100.00;99784.55;1712364;83;20967;-79
2022/08/08 05:36:39;;;;;;;3.65;2.42;;;;;;;19.05;100.00;99787.66;1704219;83;21078;-78
2022/08/08 05:39:06;;;;;;;3.65;2.60;;;;;;;19.03;100.00;99785.61;1649283;84;21188;-79
2022/08/08 05:41:36;;;;;;;3.30;2.20;;;;;;;18.99;100.00;99792.05;1717626;83;21029;-80
2022/08/08 05:44:08;;;;;;;2.47;2.27;;;;;;;19.02;100.00;99792.67;1695591;83;21097;-79
2022/08/08 05:46:37;;;;;;;6.60;2.55;;;;;;;19.04;100.00;99796.05;1691892;83;21072;-86
2022/08/08 05:49:06;;;;;;;2.50;2.30;;;;;;;19.08;100.00;99798.00;1714672;81;21034;-78
2022/08/08 05:51:32;;;;;;;2.90;2.10;;;;;;;19.11;100.00;99794.67;1695494;82;21746;-79
2022/08/08 05:54:02;;;;;;;2.27;2.08;;;;;;;19.18;100.00;99794.58;1698475;83;21129;-78
2022/08/08 05:56:29;;;;;;;1.70;1.60;;;;;;;19.26;100.00;99794.88;1664625;85;21053;-79
2022/08/08 05:59:01;;;;;;;2.33;1.72;;;;;;;19.33;100.00;99797.09;1666219;85;21062;-81
2022/08/08 06:01:28;;;;;;;2.52;2.10;;;;;;;19.39;100.00;99788.23;1663136;85;21087;-80
2022/08/08 06:04:00;;;;;;;2.00;1.90;;;;;;;19.46;100.00;99794.76;1707394;81;21230;-81
2022/08/08 06:06:28;;;;;;;2.92;1.70;;;;;;;19.45;100.00;99799.66;1701322;83;21140;-80
2022/08/08 06:08:55;;;;;;;3.30;1.95;;;;;;;19.41;100.00;99799.99;1739842;81;21579;-82
2022/08/08 06:11:22;;;;;;;2.17;1.98;;;;;;;19.37;100.00;99805.15;1672917;83;21069;-80
2022/08/08 06:13:49;;;;;;;2.25;2.15;;;;;;;19.36;100.00;99812.22;1725876;82;21058;-82
2022/08/08 06:16:18;;;;;;;2.08;1.90;;;;;;;19.37;100.00;99809.95;1728991;82;21164;-78
2022/08/08 06:18:50;;;;;;;2.50;1.90;;;;;;;19.42;100.00;99810.44;1720477;82;21549;-80
2022/08/08 06:21:17;;;;;;;2.40;2.20;;;;;;;19.45;100.00;99821.24;1690069;81;21113;-79
2022/08/08 06:23:44;;;;;;;2.20;2.00;;;;;;;19.46;100.00;99807.10;1659893;83;21132;-79
2022/08/08 06:26:11;;;;;;;1.85;1.75;;;;;;;19.48;100.00;99818.39;1702714;82;21599;-79
2022/08/08 06:29:08;;;;;;;2.30;2.10;;;;;;;19.51;100.00;99808.97;1716537;83;21085;-80
2022/08/08 06:31:37;;;;;;;2.47;1.90;;;;;;;19.58;100.00;99812.34;1708573;82;21098;-79
2022/08/08 06:34:17;;;;;;;2.40;1.87;;;;;;;19.70;100.00;99813.74;1707141;83;21518;-80
2022/08/08 06:36:45;;;;;;;3.87;2.05;;;;;;;19.77;100.00;99813.66;1709479;81;21068;-79
2022/08/08 06:39:16;;;;;;;3.95;1.98;;;;;;;19.85;100.00;99809.96;1689786;83;20992;-78
2022/08/08 06:41:58;;;;;;;7.45;2.27;;;;;;;19.94;100.00;99807.49;1709804;81;21781;-79
2022/08/08 06:44:27;;;;;;;3.17;1.95;;;;;;;20.02;100.00;99806.06;1699335;82;21076;-82
2022/08/08 06:46:58;;;;;;;2.37;1.60;;;;;;;20.09;100.00;99815.21;1730107;81;21081;-79
2022/08/08 06:49:26;;;;;;;6.65;2.62;;;;;;;20.13;100.00;99806.11;1743073;82;21507;-84
2022/08/08 06:51:53;;;;;;;2.40;2.20;;;;;;;20.13;100.00;99812.23;1730419;81;21722;-81
2022/08/08 06:54:22;;;;;;;3.72;2.15;;;;;;;20.12;100.00;99816.30;1727209;81;21161;-80
2022/08/08 06:56:50;;;;;;;2.50;2.30;;;;;;;20.13;100.00;99814.03;1735489;82;21033;-81
2022/08/08 06:59:16;;;;;;;3.55;2.25;;;;;;;20.14;100.00;99808.63;1722565;81;21019;-77
2022/08/08 07:01:54;;;;;;;3.20;3.00;;;;;;;20.12;100.00;99819.79;1713673;82;21128;-77
2022/08/08 07:04:30;;;;;;;2.92;2.70;;;;;;;20.07;100.00;99815.33;1713836;83;21614;-73
2022/08/08 07:07:01;;;;;;;2.52;2.33;;;;;;;20.02;100.00;99817.45;1713811;81;21776;-74
2022/08/08 07:09:53;;;;;;;3.42;2.35;;;;;;;20.05;100.00;99821.20;1727107;82;21010;-71
2022/08/08 07:12:28;;;;;;;3.15;2.60;;;;;;;20.08;100.00;99830.21;1731451;82;21051;-75
2022/08/08 07:15:03;;;;;;;2.47;2.27;;;;;;;20.04;100.00;99827.44;1710419;82;21030;-77
2022/08/08 07:17:39;;;;;;;2.22;2.12;;;;;;;20.03;100.00;99820.47;1691038;83;21055;-74
2022/08/08 07:20:08;;;;;;;2.58;2.37;;;;;;;20.09;100.00;99825.30;1704380;83;21194;-75
2022/08/08 07:22:44;;;;;;;3.20;3.00;;;;;;;20.11;100.00;99826.03;1704972;83;21342;-74
2022/08/08 07:25:11;;;;;;;8.20;2.85;;;;;;;20.15;100.00;99827.97;1723217;81;21060;-74
2022/08/08 07:27:49;;;;;;;4.45;3.10;;;;;;;20.10;100.00;99832.27;1705038;83;21112;-73
2022/08/08 07:30:16;;;;;;;3.33;3.02;;;;;;;20.08;100.00;99832.85;1696829;83;21515;-73
2022/08/08 07:32:43;;;;;;;3.60;3.30;;;;;;;20.08;100.00;99829.37;1704393;83;21128;-73
2022/08/08 07:35:12;;;;;;;6.80;3.42;;;;;;;20.07;100.00;99829.84;1707075;82;21164;-74
2022/08/08 07:37:40;;;;;;;3.40;3.10;;;;;;;20.10;100.00;99826.98;1721993;82;21104;-74
2022/08/08 07:40:11;;;;;;;5.97;3.10;;;;;;;20.16;100.00;99833.61;1729759;82;21109;-72
2022/08/08 07:42:37;;;;;;;3.70;3.37;;;;;;;20.20;100.00;99833.72;1719768;82;21092;-73
2022/08/08 07:45:07;;;;;;;3.52;2.70;;;;;;;20.23;100.00;99832.17;1719463;82;22167;-72
2022/08/08 07:47:39;;;;;;;2.95;2.75;;;;;;;20.28;100.00;99833.99;1703370;82;21097;-78
2022/08/08 07:50:07;;;;;;;3.22;2.65;;;;;;;20.35;100.00;99841.83;1706830;82;21098;-77
2022/08/08 07:52:38;;;;;;;2.40;2.25;;;;;;;20.43;100.00;99838.14;1691024;82;21300;-76
2022/08/08 07:55:23;;;;;;;3.02;2.83;;;;;;;20.52;100.00;99837.92;1708327;82;21049;-77
2022/08/08 07:57:59;;;;;;;2.75;2.55;;;;;;;20.62;98.88;99840.20;1710989;82;21528;-78
2022/08/08 08:00:40;;;;;;;2.55;2.35;;;;;;;20.68;97.86;99843.70;1677729;83;21077;-78
2022/08/08 08:03:11;;;;;;;3.92;2.62;;;;;;;20.75;98.20;99842.77;1679625;82;20990;-78
2022/08/08 08:05:43;;;;;;;3.20;2.50;;;;;;;20.80;97.25;99844.06;1714884;81;21088;-79
2022/08/08 08:08:19;;;;;;;3.25;3.02;;;;;;;20.82;97.57;99837.34;1705480;83;21033;-75
2022/08/08 08:10:53;;;;;;;6.70;3.83;;;;;;;20.87;97.80;99843.13;1696503;83;21276;-76
2022/08/08 08:13:40;;;;;;;4.97;3.42;;;;;;;20.88;98.05;99844.80;1713861;82;21053;-77
2022/08/08 08:16:12;;;;;;;3.85;3.55;;;;;;;20.91;97.92;99843.25;1698389;82;21071;-77
2022/08/08 08:18:45;;;;;;;4.80;4.30;;;;;;;20.85;97.27;99847.20;1713400;82;21041;-80
2022/08/08 08:21:14;;;;;;;4.67;4.00;;;;;;;20.77;97.49;99848.78;1713340;82;21602;-75
2022/08/08 08:23:41;;;;;;;4.72;4.30;;;;;;;20.68;97.73;99856.08;1677843;82;21501;-74
2022/08/08 08:26:10;;;;;;;3.60;3.30;;;;;;;20.62;98.51;99854.27;1722097;82;22284;-74
2022/08/08 08:28:36;;;;;;;4.25;3.52;;;;;;;20.60;98.56;99852.22;1719846;82;21499;-74
2022/08/08 08:31:04;;;;;;;4.15;3.75;;;;;;;20.64;98.68;99856.31;1721898;82;21029;-75
2022/08/08 08:33:34;;;;;;;7.00;4.08;;;;;;;20.72;98.56;99849.13;1694357;82;21067;-78
2022/08/08 08:36:01;;;;;;;4.17;3.30;;;;;;;20.82;98.07;99847.92;1730519;81;21120;-77
2022/08/08 08:38:30;;;;;;;2.77;2.55;;;;;;;20.94;96.59;99850.47;1731279;81;21009;-79
2022/08/08 08:40:58;;;;;;;3.45;3.00;;;;;;;21.05;96.27;99852.73;1728127;81;21529;-77
2022/08/08 08:43:25;;;;;;;13.90;6.20;;;;;;;21.11;96.49;99854.42;1717057;81;21039;-77
2022/08/08 08:45:52;;;;;;;4.25;3.85;;;;;;;21.14;95.71;99857.31;1722483;82;21500;-79
2022/08/08 08:48:19;;;;;;;3.17;2.98;;;;;;;21.14;94.63;99852.86;1702516;82;21238;-76
2022/08/08 08:50:51;;;;;;;5.33;3.62;;;;;;;21.14;93.38;99859.48;1660530;85;21045;-76
2022/08/08 08:53:17;;;;;;;8.20;5.35;;;;;;;21.17;93.67;99857.08;1685865;83;20991;-77
2022/08/08 08:55:44;;;;;;;10.93;4.10;;;;;;;21.19;93.37;99856.45;1709723;83;21042;-75
2022/08/08 08:58:38;;;;;;;8.03;4.45;;;;;;;21.18;93.45;99850.31;1702869;83;21647;-76
2022/08/08 09:01:05;;;;;;;4.37;3.30;;;;;;;21.22;93.53;99850.95;1712978;82;21429;-78
2022/08/08 09:03:33;;;;;;;6.65;4.45;;;;;;;21.20;92.58;99855.03;1717533;81;21049;-79
2022/08/08 09:06:00;;;;;;;5.17;3.75;;;;;;;21.18;92.37;99853.47;1720719;82;21133;-75
2022/08/08 09:08:27;;;;;;;5.80;3.65;;;;;;;21.16;92.16;99848.30;1713122;82;21618;-69
2022/08/08 09:10:54;;;;;;;17.52;4.83;;;;;;;21.12;91.75;99847.33;1693605;82;21143;-70
2022/08/08 09:13:21;;;;;;;5.95;3.70;;;;;;;21.13;92.67;99851.66;1719440;82;21147;-72
2022/08/08 09:15:48;;;;;;;5.08;3.80;;;;;;;21.16;92.68;99849.63;1726537;82;21557;-77
2022/08/08 09:18:18;;;;;;;7.67;5.35;;;;;;;21.20;92.56;99852.39;1725146;82;21041;-77
2022/08/08 09:20:45;;;;;;;4.65;3.95;;;;;;;21.24;92.38;99852.52;1725361;82;21171;-72
2022/08/08 09:23:15;;;;;;;5.72;5.15;;;;;;;21.27;92.47;99854.92;1719011;82;21326;-76
2022/08/08 09:25:51;;;;;;;13.85;6.08;;;;;;;21.28;91.63;99859.25;1707624;82;21244;-74
2022/08/08 09:28:19;;;;;;;9.30;5.35;;;;;;;21.26;91.79;99857.69;1714004;82;21045;-71
2022/08/08 09:30:47;;;;;;;5.00;4.50;;;;;;;21.27;91.59;99854.92;1724285;82;21025;-72
2022/08/08 09:33:15;;;;;;;7.92;5.85;;;;;;;21.36;91.66;99859.13;1724768;82;21666;-73
2022/08/08 09:35:47;;;;;;;8.00;5.85;;;;;;;21.41;91.40;99867.04;1717655;82;21581;-72
2022/08/08 09:38:18;;;;;;;5.42;4.40;;;;;;;21.39;91.23;99863.67;1714652;81;21183;-72
2022/08/08 09:40:45;;;;;;;4.80;4.40;;;;;;;21.43;91.06;99865.59;1682936;82;21097;-74
2022/08/08 09:43:28;;;;;;;5.00;4.50;;;;;;;21.43;90.88;99860.30;1708685;83;21049;-74
2022/08/08 09:46:00;;;;;;;6.90;4.65;;;;;;;21.42;90.56;99858.14;1687348;83;21014;-73
2022/08/08 09:48:32;;;;;;;4.90;4.47;;;;;;;21.40;90.71;99858.73;1709997;83;21111;-74
2022/08/08 09:50:58;;;;;;;5.87;4.53;;;;;;;21.46;90.98;99854.77;1710589;81;21235;-72
2022/08/08 09:53:48;;;;;;;4.47;4.17;;;;;;;21.54;89.83;99851.03;1708296;83;21663;-71
2022/08/08 09:56:16;;;;;;;4.70;4.30;;;;;;;21.64;89.52;99848.83;1689676;83;21085;-73
2022/08/08 09:58:51;;;;;;;4.58;4.17;;;;;;;21.76;88.85;99858.08;1686052;83;21107;-80
2022/08/08 10:01:21;;;;;;;4.50;4.20;;;;;;;21.78;88.31;99854.83;1713058;82;21097;-80
2022/08/08 10:03:49;;;;;;;4.78;4.37;;;;;;;21.81;88.13;99855.87;1747037;81;21514;-78
2022/08/08 10:06:17;;;;;;;4.60;4.20;;;;;;;21.89;88.01;99856.94;1719593;81;21580;-78
2022/08/08 10:08:45;;;;;;;4.80;4.40;;;;;;;21.94;86.72;99858.73;1723392;82;21015;-81
2022/08/08 10:11:17;;;;;;;5.05;4.55;;;;;;;21.93;87.15;99846.94;1727341;82;20985;-78
2022/08/08 10:14:00;;;;;;;4.80;4.40;;;;;;;21.93;87.74;99845.61;1708201;83;20992;-78
2022/08/08 10:16:37;;;;;;;5.55;4.50;;;;;;;21.98;87.60;99842.92;1696589;83;21108;-78
2022/08/08 10:19:06;;;;;;;4.72;4.05;;;;;;;22.07;87.66;99845.34;1703046;83;22345;-78
2022/08/08 10:21:34;;;;;;;4.60;4.28;;;;;;;22.14;87.26;99844.35;1697388;83;21015;-77
2022/08/08 10:24:10;;;;;;;5.00;4.60;;;;;;;22.23;86.51;99834.30;1698460;83;21080;-76
2022/08/08 10:26:50;;;;;;;5.30;4.85;;;;;;;22.30;86.31;99835.47;1691030;83;21259;-80
2022/08/08 10:29:24;;;;;;;5.50;4.97;;;;;;;22.34;84.65;99841.72;1705509;83;21294;-79
2022/08/08 10:34:44;;;;;;;5.22;4.83;;;;;;;22.46;83.81;99833.20;1697702;83;21085;-80
2022/08/08 10:37:12;;;;;;;4.58;4.28;;;;;;;22.62;83.52;99834.05;1697066;83;21576;-78
2022/08/08 10:39:45;;;;;;;5.62;4.67;;;;;;;22.74;82.68;99834.83;1708977;83;21021;-80
2022/08/08 10:42:14;;;;;;;8.38;4.53;;;;;;;22.76;81.66;99835.05;1589778;88;21177;-80
2022/08/08 10:44:41;;;;;;;5.40;5.00;;;;;;;22.76;81.28;99835.05;1570743;88;21493;-81
2022/08/08 10:47:10;;;;;;;5.33;4.50;;;;;;;22.74;82.03;99838.80;1579953;88;21651;-80
2022/08/08 10:49:38;;;;;;;6.53;5.25;;;;;;;22.63;82.63;99841.87;1578514;87;21214;-81
2022/08/08 10:52:05;;;;;;;5.50;4.70;;;;;;;22.52;83.69;99845.09;1570481;86;21147;-78
2022/08/08 10:54:32;;;;;;;6.08;5.40;;;;;;;22.44;83.84;99844.41;1589856;87;21282;-79
2022/08/08 10:57:01;;;;;;;6.17;5.05;;;;;;;22.41;83.04;99834.55;1589581;88;21116;-80
2022/08/08 10:59:27;;;;;;;5.22;4.83;;;;;;;22.39;83.30;99835.16;1604531;87;21156;-79
2022/08/08 11:01:54;;;;;;;5.92;4.95;;;;;;;22.41;83.74;99838.04;1606444;87;21194;-79
2022/08/08 11:04:21;;;;;;;6.45;4.90;;;;;;;22.45;84.02;99845.25;1585956;88;21082;-81
2022/08/08 11:06:48;;;;;;;8.68;4.85;;;;;;;22.43;84.15;99833.45;1613875;84;21246;-83
2022/08/08 11:09:15;;;;;;;5.28;4.87;;;;;;;22.45;84.95;99838.14;1640242;85;21729;-81
2022/08/08 11:11:45;;;;;;;6.58;6.08;;;;;;;22.50;84.61;99843.91;1685924;83;21135;-77
2022/08/08 11:14:15;;;;;;;6.37;5.37;;;;;;;22.46;83.60;99837.66;1718744;82;21101;-77
2022/08/08 11:16:44;;;;;;;5.70;5.30;;;;;;;22.37;84.65;99843.76;1722997;82;21684;-79
2022/08/08 11:19:11;;;;;;;6.22;5.60;;;;;;;22.30;85.02;99840.77;1745619;81;21069;-79
2022/08/08 11:21:40;;;;;;;6.65;6.08;;;;;;;22.21;85.77;99841.53;1725603;81;21032;-79
2022/08/08 11:24:10;;;;;;;7.55;6.17;;;;;;;22.11;86.22;99835.34;1732092;81;21058;-80
2022/08/08 11:26:39;;;;;;;7.22;6.53;;;;;;;22.04;87.11;99836.31;1733397;82;21536;-80
2022/08/08 11:29:06;;;;;;;8.38;6.08;;;;;;;22.07;87.57;99845.34;1740149;81;21174;-80
2022/08/08 11:31:40;;;;;;;5.95;5.37;;;;;;;22.13;86.51;99828.94;1723570;81;21767;-81
2022/08/08 11:34:07;;;;;;;6.08;5.58;;;;;;;22.21;85.70;99833.09;1708859;83;21140;-80
2022/08/08 11:36:36;;;;;;;6.50;6.00;;;;;;;22.21;85.68;99834.42;1713014;83;20978;-80
2022/08/08 11:39:04;;;;;;;6.15;5.65;;;;;;;22.21;85.69;99829.12;1707626;83;21013;-79
2022/08/08 11:41:34;;;;;;;5.67;5.28;;;;;;;22.27;85.14;99829.94;1705732;83;21030;-77
2022/08/08 11:44:01;;;;;;;5.67;5.17;;;;;;;22.32;84.88;99832.21;1708175;83;21136;-77
2022/08/08 11:46:33;;;;;;;6.15;5.72;;;;;;;22.32;85.39;99829.56;1711337;82;20944;-81
2022/08/08 11:49:08;;;;;;;6.30;5.62;;;;;;;22.36;85.29;99828.83;1595845;87;21122;-78
2022/08/08 11:51:35;;;;;;;6.92;6.30;;;;;;;22.39;84.45;99829.38;1606383;86;21124;-80
2022/08/08 11:54:01;;;;;;;8.40;5.80;;;;;;;22.43;84.40;99829.97;1569648;87;21164;-81
2022/08/08 11:56:33;;;;;;;5.62;5.20;;;;;;;22.54;84.07;99825.45;1564605;89;21255;-82
2022/08/08 11:59:09;;;;;;;5.95;5.45;;;;;;;22.68;82.91;99817.14;1610232;86;21139;-80
2022/08/08 12:01:36;;;;;;;6.25;5.85;;;;;;;22.77;82.73;99818.20;1594871;87;21132;-80
2022/08/08 12:04:04;;;;;;;6.85;6.25;;;;;;;22.83;82.20;99818.14;1565245;90;21170;-81
2022/08/08 12:06:32;;;;;;;7.25;6.30;;;;;;;22.85;82.18;99823.67;1573949;90;21112;-79
2022/08/08 12:09:08;;;;;;;6.70;6.08;;;;;;;22.81;82.05;99818.75;1551948;90;21808;-79
2022/08/08 12:11:40;;;;;;;6.72;6.08;;;;;;;22.80;82.47;99816.59;1598266;87;21083;-78
2022/08/08 12:14:08;;;;;;;;;;;;;;;22.85;82.13;99817.52;1615061;86;21031;-79
2022/08/08 12:16:51;;;;;;;8.13;5.62;;;;;;;22.92;81.21;99816.03;1650723;85;20206;-80